Honokaa, Hawaii
Current Conditions -  °F | °C
As of 4:56 AM on Monday 22 Dec 2014 (Local Time) from PHSF Reporting Station
Few Clouds Few Clouds  
Wind Chill: 38°   Ceiling: Unl
Heat Index: 38°   Visibility: 10mi
Dew Point: 34°   Wind: 3mph
Humidity: 86%   Direction: 130°SE
Pressure: 30.28"   Gusts: NA
Location:  20.07°N, 155.46°W
Report Text: PHSF 221456Z AUTO 13003KT 10SM FEW009 04/01 A3028 RMK AO2 SLP161 T00350013 55001 $
Loading
Personal Weather Stations






























Interactive Weather Map New forecast layout! Learn more

10-Day Weather Forecast

Advertisements
Track Severe Weather on mobile